sensor_id;sensor_type;location;lat;lon;timestamp;P1;durP1;ratioP1;P2;durP2;ratioP2
72584;SDS011;60618;40.084;32.908;2023-05-10T00:00:21;15.73;;;8.80;;
72584;SDS011;60618;40.084;32.908;2023-05-10T00:02:49;14.83;;;8.07;;
72584;SDS011;60618;40.084;32.908;2023-05-10T00:05:16;14.38;;;7.93;;
72584;SDS011;60618;40.084;32.908;2023-05-10T00:07:43;13.63;;;8.02;;
72584;SDS011;60618;40.084;32.908;2023-05-10T00:10:10;15.13;;;8.57;;
72584;SDS011;60618;40.084;32.908;2023-05-10T00:12:38;15.85;;;7.70;;
72584;SDS011;60618;40.084;32.908;2023-05-10T00:15:05;15.33;;;8.10;;
72584;SDS011;60618;40.084;32.908;2023-05-10T00:17:32;14.23;;;8.07;;
72584;SDS011;60618;40.084;32.908;2023-05-10T00:19:59;17.48;;;9.50;;
72584;SDS011;60618;40.084;32.908;2023-05-10T00:22:26;17.25;;;9.35;;
72584;SDS011;60618;40.084;32.908;2023-05-10T00:24:53;17.38;;;9.60;;
72584;SDS011;60618;40.084;32.908;2023-05-10T00:27:20;17.60;;;8.73;;
72584;SDS011;60618;40.084;32.908;2023-05-10T00:29:47;15.60;;;8.35;;
72584;SDS011;60618;40.084;32.908;2023-05-10T00:32:14;17.10;;;8.82;;
72584;SDS011;60618;40.084;32.908;2023-05-10T00:34:41;15.38;;;8.52;;
72584;SDS011;60618;40.084;32.908;2023-05-10T00:37:08;14.40;;;8.25;;
72584;SDS011;60618;40.084;32.908;2023-05-10T00:39:35;16.23;;;8.70;;
72584;SDS011;60618;40.084;32.908;2023-05-10T00:42:01;15.60;;;8.60;;
72584;SDS011;60618;40.084;32.908;2023-05-10T00:44:28;15.15;;;8.15;;
72584;SDS011;60618;40.084;32.908;2023-05-10T00:46:56;16.27;;;8.27;;
72584;SDS011;60618;40.084;32.908;2023-05-10T00:49:23;15.88;;;8.00;;
72584;SDS011;60618;40.084;32.908;2023-05-10T00:51:50;14.17;;;7.73;;
72584;SDS011;60618;40.084;32.908;2023-05-10T00:54:17;15.23;;;8.02;;
72584;SDS011;60618;40.084;32.908;2023-05-10T00:56:44;14.40;;;8.10;;
72584;SDS011;60618;40.084;32.908;2023-05-10T00:59:11;15.00;;;8.18;;
72584;SDS011;60618;40.084;32.908;2023-05-10T01:01:38;14.90;;;7.90;;
72584;SDS011;60618;40.084;32.908;2023-05-10T01:04:05;15.90;;;8.60;;
72584;SDS011;60618;40.084;32.908;2023-05-10T01:06:32;14.23;;;7.93;;
72584;SDS011;60618;40.084;32.908;2023-05-10T01:08:59;14.73;;;8.05;;
72584;SDS011;60618;40.084;32.908;2023-05-10T01:11:26;14.00;;;7.72;;
72584;SDS011;60618;40.084;32.908;2023-05-10T01:13:55;16.98;;;8.48;;
72584;SDS011;60618;40.084;32.908;2023-05-10T01:16:23;17.50;;;8.53;;
72584;SDS011;60618;40.084;32.908;2023-05-10T01:18:52;14.40;;;8.23;;
72584;SDS011;60618;40.084;32.908;2023-05-10T01:24:28;14.00;;;7.90;;
72584;SDS011;60618;40.084;32.908;2023-05-10T01:30:35;13.47;;;7.20;;
72584;SDS011;60618;40.084;32.908;2023-05-10T01:33:26;13.40;;;7.45;;
72584;SDS011;60618;40.084;32.908;2023-05-10T01:39:39;11.95;;;6.47;;
72584;SDS011;60618;40.084;32.908;2023-05-10T01:44:35;13.37;;;7.50;;
72584;SDS011;60618;40.084;32.908;2023-05-10T01:47:11;13.65;;;7.38;;
72584;SDS011;60618;40.084;32.908;2023-05-10T01:49:45;15.25;;;7.88;;
72584;SDS011;60618;40.084;32.908;2023-05-10T01:52:16;13.27;;;7.22;;
72584;SDS011;60618;40.084;32.908;2023-05-10T01:54:50;13.02;;;7.15;;
72584;SDS011;60618;40.084;32.908;2023-05-10T01:57:22;13.37;;;7.33;;
72584;SDS011;60618;40.084;32.908;2023-05-10T01:59:54;15.68;;;7.65;;
72584;SDS011;60618;40.084;32.908;2023-05-10T02:02:22;12.55;;;7.32;;
72584;SDS011;60618;40.084;32.908;2023-05-10T02:04:52;13.63;;;6.95;;
72584;SDS011;60618;40.084;32.908;2023-05-10T02:07:20;14.43;;;7.20;;
72584;SDS011;60618;40.084;32.908;2023-05-10T02:09:49;13.80;;;7.47;;
72584;SDS011;60618;40.084;32.908;2023-05-10T02:12:17;13.57;;;6.78;;
72584;SDS011;60618;40.084;32.908;2023-05-10T02:14:45;13.52;;;7.22;;
72584;SDS011;60618;40.084;32.908;2023-05-10T02:17:13;13.68;;;7.22;;
72584;SDS011;60618;40.084;32.908;2023-05-10T02:19:41;13.80;;;7.70;;
72584;SDS011;60618;40.084;32.908;2023-05-10T02:22:09;14.83;;;7.80;;
72584;SDS011;60618;40.084;32.908;2023-05-10T02:24:38;13.48;;;6.95;;
72584;SDS011;60618;40.084;32.908;2023-05-10T02:27:06;12.70;;;7.00;;
72584;SDS011;60618;40.084;32.908;2023-05-10T02:29:35;13.43;;;7.32;;
72584;SDS011;60618;40.084;32.908;2023-05-10T02:32:03;13.27;;;7.15;;
72584;SDS011;60618;40.084;32.908;2023-05-10T02:34:31;12.83;;;7.17;;
72584;SDS011;60618;40.084;32.908;2023-05-10T02:36:59;12.20;;;7.18;;
72584;SDS011;60618;40.084;32.908;2023-05-10T02:39:28;13.73;;;7.15;;
72584;SDS011;60618;40.084;32.908;2023-05-10T02:41:58;12.80;;;7.40;;
72584;SDS011;60618;40.084;32.908;2023-05-10T02:44:26;13.93;;;7.40;;
72584;SDS011;60618;40.084;32.908;2023-05-10T02:46:55;14.73;;;7.53;;
72584;SDS011;60618;40.084;32.908;2023-05-10T02:49:22;14.70;;;7.53;;
72584;SDS011;60618;40.084;32.908;2023-05-10T02:51:50;12.68;;;6.90;;
72584;SDS011;60618;40.084;32.908;2023-05-10T02:54:24;13.27;;;7.53;;
72584;SDS011;60618;40.084;32.908;2023-05-10T02:56:59;13.30;;;7.45;;
72584;SDS011;60618;40.084;32.908;2023-05-10T02:59:30;13.03;;;6.90;;
72584;SDS011;60618;40.084;32.908;2023-05-10T03:01:57;14.90;;;7.55;;
72584;SDS011;60618;40.084;32.908;2023-05-10T03:04:25;13.88;;;7.38;;
72584;SDS011;60618;40.084;32.908;2023-05-10T03:06:52;14.38;;;7.50;;
72584;SDS011;60618;40.084;32.908;2023-05-10T03:09:19;13.93;;;7.53;;
72584;SDS011;60618;40.084;32.908;2023-05-10T03:11:59;14.17;;;7.43;;
72584;SDS011;60618;40.084;32.908;2023-05-10T03:17:25;14.35;;;6.97;;
72584;SDS011;60618;40.084;32.908;2023-05-10T03:20:20;14.30;;;7.57;;
72584;SDS011;60618;40.084;32.908;2023-05-10T03:23:34;17.20;;;7.85;;
72584;SDS011;60618;40.084;32.908;2023-05-10T03:25:44;14.60;;;7.20;;
72584;SDS011;60618;40.084;32.908;2023-05-10T03:28:14;15.30;;;7.82;;
72584;SDS011;60618;40.084;32.908;2023-05-10T03:30:43;14.30;;;7.68;;
72584;SDS011;60618;40.084;32.908;2023-05-10T03:33:10;14.60;;;7.35;;
72584;SDS011;60618;40.084;32.908;2023-05-10T03:35:37;17.77;;;8.23;;
72584;SDS011;60618;40.084;32.908;2023-05-10T03:38:04;13.80;;;7.10;;
72584;SDS011;60618;40.084;32.908;2023-05-10T03:40:31;14.63;;;7.53;;
72584;SDS011;60618;40.084;32.908;2023-05-10T03:42:58;13.57;;;7.22;;
72584;SDS011;60618;40.084;32.908;2023-05-10T03:45:25;14.93;;;7.72;;
72584;SDS011;60618;40.084;32.908;2023-05-10T03:47:52;14.50;;;7.30;;
72584;SDS011;60618;40.084;32.908;2023-05-10T03:50:20;16.53;;;8.33;;
72584;SDS011;60618;40.084;32.908;2023-05-10T03:52:47;16.38;;;7.70;;
72584;SDS011;60618;40.084;32.908;2023-05-10T03:55:14;14.43;;;8.23;;
72584;SDS011;60618;40.084;32.908;2023-05-10T03:57:41;14.45;;;7.65;;
72584;SDS011;60618;40.084;32.908;2023-05-10T04:00:08;15.50;;;7.68;;
72584;SDS011;60618;40.084;32.908;2023-05-10T04:02:36;15.60;;;8.03;;
72584;SDS011;60618;40.084;32.908;2023-05-10T04:05:04;13.77;;;7.50;;
72584;SDS011;60618;40.084;32.908;2023-05-10T04:07:31;15.35;;;8.05;;
72584;SDS011;60618;40.084;32.908;2023-05-10T04:09:58;14.30;;;7.57;;
72584;SDS011;60618;40.084;32.908;2023-05-10T04:12:28;14.60;;;7.72;;
72584;SDS011;60618;40.084;32.908;2023-05-10T04:14:55;14.23;;;7.30;;
72584;SDS011;60618;40.084;32.908;2023-05-10T04:17:22;14.63;;;7.90;;
72584;SDS011;60618;40.084;32.908;2023-05-10T04:19:48;15.43;;;8.10;;
72584;SDS011;60618;40.084;32.908;2023-05-10T04:22:15;15.25;;;7.63;;
72584;SDS011;60618;40.084;32.908;2023-05-10T04:24:42;13.77;;;7.78;;
72584;SDS011;60618;40.084;32.908;2023-05-10T04:27:09;14.50;;;7.20;;
72584;SDS011;60618;40.084;32.908;2023-05-10T04:29:36;16.10;;;8.13;;
72584;SDS011;60618;40.084;32.908;2023-05-10T04:32:03;14.30;;;7.57;;
72584;SDS011;60618;40.084;32.908;2023-05-10T04:34:30;15.55;;;8.20;;
72584;SDS011;60618;40.084;32.908;2023-05-10T04:36:57;14.80;;;8.00;;
72584;SDS011;60618;40.084;32.908;2023-05-10T04:39:24;14.63;;;7.80;;
72584;SDS011;60618;40.084;32.908;2023-05-10T04:41:54;15.73;;;7.82;;
72584;SDS011;60618;40.084;32.908;2023-05-10T04:44:21;15.70;;;8.02;;
72584;SDS011;60618;40.084;32.908;2023-05-10T04:46:48;14.45;;;7.53;;
72584;SDS011;60618;40.084;32.908;2023-05-10T04:49:15;14.27;;;7.75;;
72584;SDS011;60618;40.084;32.908;2023-05-10T04:51:42;14.43;;;7.73;;
72584;SDS011;60618;40.084;32.908;2023-05-10T04:54:09;16.02;;;8.10;;
72584;SDS011;60618;40.084;32.908;2023-05-10T04:56:36;14.30;;;7.43;;
72584;SDS011;60618;40.084;32.908;2023-05-10T04:59:03;17.55;;;7.63;;
72584;SDS011;60618;40.084;32.908;2023-05-10T05:01:30;15.80;;;8.02;;
72584;SDS011;60618;40.084;32.908;2023-05-10T05:03:57;13.60;;;7.10;;
72584;SDS011;60618;40.084;32.908;2023-05-10T05:06:28;14.32;;;7.57;;
72584;SDS011;60618;40.084;32.908;2023-05-10T05:08:55;13.20;;;7.40;;
72584;SDS011;60618;40.084;32.908;2023-05-10T05:11:22;14.50;;;7.78;;
72584;SDS011;60618;40.084;32.908;2023-05-10T05:13:54;13.05;;;7.50;;
72584;SDS011;60618;40.084;32.908;2023-05-10T05:16:21;14.63;;;7.37;;
72584;SDS011;60618;40.084;32.908;2023-05-10T05:18:48;12.65;;;6.97;;
72584;SDS011;60618;40.084;32.908;2023-05-10T05:21:16;12.45;;;6.85;;
72584;SDS011;60618;40.084;32.908;2023-05-10T05:23:53;14.43;;;7.50;;
72584;SDS011;60618;40.084;32.908;2023-05-10T05:26:23;18.13;;;7.13;;
72584;SDS011;60618;40.084;32.908;2023-05-10T05:28:50;14.83;;;7.77;;
72584;SDS011;60618;40.084;32.908;2023-05-10T05:31:17;15.52;;;7.07;;
72584;SDS011;60618;40.084;32.908;2023-05-10T05:33:44;12.88;;;7.55;;
72584;SDS011;60618;40.084;32.908;2023-05-10T05:36:11;14.57;;;8.02;;
72584;SDS011;60618;40.084;32.908;2023-05-10T05:38:38;13.20;;;7.03;;
72584;SDS011;60618;40.084;32.908;2023-05-10T05:41:04;13.87;;;7.93;;
72584;SDS011;60618;40.084;32.908;2023-05-10T05:43:31;14.30;;;8.15;;
72584;SDS011;60618;40.084;32.908;2023-05-10T05:46:00;13.48;;;7.50;;
72584;SDS011;60618;40.084;32.908;2023-05-10T05:48:29;13.93;;;7.78;;
72584;SDS011;60618;40.084;32.908;2023-05-10T05:50:57;13.68;;;7.85;;
72584;SDS011;60618;40.084;32.908;2023-05-10T05:53:24;13.47;;;7.60;;
72584;SDS011;60618;40.084;32.908;2023-05-10T05:55:52;16.20;;;8.45;;
72584;SDS011;60618;40.084;32.908;2023-05-10T05:58:19;13.43;;;7.35;;
72584;SDS011;60618;40.084;32.908;2023-05-10T06:00:47;13.27;;;7.60;;
72584;SDS011;60618;40.084;32.908;2023-05-10T06:03:14;14.88;;;7.72;;
72584;SDS011;60618;40.084;32.908;2023-05-10T06:05:41;15.73;;;8.03;;
72584;SDS011;60618;40.084;32.908;2023-05-10T06:08:08;14.63;;;7.55;;
72584;SDS011;60618;40.084;32.908;2023-05-10T06:10:35;14.55;;;7.55;;
72584;SDS011;60618;40.084;32.908;2023-05-10T06:13:02;15.32;;;7.05;;
72584;SDS011;60618;40.084;32.908;2023-05-10T06:15:30;13.57;;;7.03;;
72584;SDS011;60618;40.084;32.908;2023-05-10T06:17:57;13.97;;;7.40;;
72584;SDS011;60618;40.084;32.908;2023-05-10T06:20:24;16.05;;;7.65;;
72584;SDS011;60618;40.084;32.908;2023-05-10T06:22:51;13.45;;;7.10;;
72584;SDS011;60618;40.084;32.908;2023-05-10T06:25:18;12.77;;;7.30;;
72584;SDS011;60618;40.084;32.908;2023-05-10T06:27:45;13.20;;;7.32;;
72584;SDS011;60618;40.084;32.908;2023-05-10T06:30:18;18.23;;;7.10;;
72584;SDS011;60618;40.084;32.908;2023-05-10T06:32:45;14.07;;;7.20;;
72584;SDS011;60618;40.084;32.908;2023-05-10T06:35:12;14.25;;;7.57;;
72584;SDS011;60618;40.084;32.908;2023-05-10T06:37:39;15.05;;;7.53;;
72584;SDS011;60618;40.084;32.908;2023-05-10T06:40:06;15.57;;;7.30;;
72584;SDS011;60618;40.084;32.908;2023-05-10T06:42:33;15.13;;;6.77;;
72584;SDS011;60618;40.084;32.908;2023-05-10T06:45:01;12.80;;;6.82;;
72584;SDS011;60618;40.084;32.908;2023-05-10T06:47:28;12.13;;;6.53;;
72584;SDS011;60618;40.084;32.908;2023-05-10T06:49:55;13.20;;;7.35;;
72584;SDS011;60618;40.084;32.908;2023-05-10T06:52:22;15.02;;;7.63;;
72584;SDS011;60618;40.084;32.908;2023-05-10T06:54:49;12.80;;;7.30;;
72584;SDS011;60618;40.084;32.908;2023-05-10T06:57:16;13.60;;;7.70;;
72584;SDS011;60618;40.084;32.908;2023-05-10T06:59:57;13.70;;;7.22;;
72584;SDS011;60618;40.084;32.908;2023-05-10T07:02:24;13.10;;;7.10;;
72584;SDS011;60618;40.084;32.908;2023-05-10T07:04:51;12.20;;;6.95;;
72584;SDS011;60618;40.084;32.908;2023-05-10T07:07:18;11.87;;;6.50;;
72584;SDS011;60618;40.084;32.908;2023-05-10T07:09:45;14.13;;;6.60;;
72584;SDS011;60618;40.084;32.908;2023-05-10T07:12:12;11.30;;;7.03;;
72584;SDS011;60618;40.084;32.908;2023-05-10T07:14:41;11.60;;;6.95;;
72584;SDS011;60618;40.084;32.908;2023-05-10T07:17:09;13.02;;;6.85;;
72584;SDS011;60618;40.084;32.908;2023-05-10T07:19:36;12.83;;;6.43;;
72584;SDS011;60618;40.084;32.908;2023-05-10T07:22:03;19.35;;;7.15;;
72584;SDS011;60618;40.084;32.908;2023-05-10T07:24:30;11.98;;;7.18;;
72584;SDS011;60618;40.084;32.908;2023-05-10T07:26:58;11.25;;;6.70;;
72584;SDS011;60618;40.084;32.908;2023-05-10T07:29:25;11.73;;;6.55;;
72584;SDS011;60618;40.084;32.908;2023-05-10T07:31:53;12.47;;;6.37;;
72584;SDS011;60618;40.084;32.908;2023-05-10T07:34:23;12.77;;;7.00;;
72584;SDS011;60618;40.084;32.908;2023-05-10T07:36:50;11.80;;;6.05;;
72584;SDS011;60618;40.084;32.908;2023-05-10T07:39:16;12.20;;;6.72;;
72584;SDS011;60618;40.084;32.908;2023-05-10T07:41:53;11.90;;;6.47;;
72584;SDS011;60618;40.084;32.908;2023-05-10T07:44:21;10.73;;;6.13;;
72584;SDS011;60618;40.084;32.908;2023-05-10T07:46:48;11.93;;;6.82;;
72584;SDS011;60618;40.084;32.908;2023-05-10T07:49:15;10.98;;;6.13;;
72584;SDS011;60618;40.084;32.908;2023-05-10T07:51:42;11.55;;;6.30;;
72584;SDS011;60618;40.084;32.908;2023-05-10T07:54:09;12.52;;;6.95;;
72584;SDS011;60618;40.084;32.908;2023-05-10T07:56:36;11.40;;;6.40;;
72584;SDS011;60618;40.084;32.908;2023-05-10T07:59:03;11.68;;;6.68;;
72584;SDS011;60618;40.084;32.908;2023-05-10T08:01:31;11.63;;;6.80;;
72584;SDS011;60618;40.084;32.908;2023-05-10T08:03:58;10.68;;;6.63;;
72584;SDS011;60618;40.084;32.908;2023-05-10T08:06:25;14.25;;;7.53;;
72584;SDS011;60618;40.084;32.908;2023-05-10T08:08:52;11.47;;;6.83;;
72584;SDS011;60618;40.084;32.908;2023-05-10T08:11:19;10.10;;;6.78;;
72584;SDS011;60618;40.084;32.908;2023-05-10T08:13:47;12.88;;;6.90;;
72584;SDS011;60618;40.084;32.908;2023-05-10T08:16:16;13.07;;;7.03;;
72584;SDS011;60618;40.084;32.908;2023-05-10T08:18:44;11.65;;;7.93;;
72584;SDS011;60618;40.084;32.908;2023-05-10T08:21:12;14.17;;;7.10;;
72584;SDS011;60618;40.084;32.908;2023-05-10T08:23:40;11.18;;;6.55;;
72584;SDS011;60618;40.084;32.908;2023-05-10T08:26:07;12.32;;;7.35;;
72584;SDS011;60618;40.084;32.908;2023-05-10T08:28:34;11.45;;;7.40;;
72584;SDS011;60618;40.084;32.908;2023-05-10T08:31:01;12.90;;;7.82;;
72584;SDS011;60618;40.084;32.908;2023-05-10T08:33:27;14.57;;;8.23;;
72584;SDS011;60618;40.084;32.908;2023-05-10T08:35:54;14.45;;;8.68;;
72584;SDS011;60618;40.084;32.908;2023-05-10T08:38:21;14.60;;;9.57;;
72584;SDS011;60618;40.084;32.908;2023-05-10T08:40:48;12.50;;;7.00;;
72584;SDS011;60618;40.084;32.908;2023-05-10T08:43:16;12.75;;;7.40;;
72584;SDS011;60618;40.084;32.908;2023-05-10T08:45:44;10.40;;;7.07;;
72584;SDS011;60618;40.084;32.908;2023-05-10T08:48:11;11.15;;;6.50;;
72584;SDS011;60618;40.084;32.908;2023-05-10T08:50:39;14.10;;;8.10;;
72584;SDS011;60618;40.084;32.908;2023-05-10T08:53:12;15.23;;;8.00;;
72584;SDS011;60618;40.084;32.908;2023-05-10T08:55:40;12.50;;;7.47;;
72584;SDS011;60618;40.084;32.908;2023-05-10T08:58:07;11.03;;;6.83;;
72584;SDS011;60618;40.084;32.908;2023-05-10T09:00:35;13.55;;;8.15;;
72584;SDS011;60618;40.084;32.908;2023-05-10T09:03:03;13.80;;;9.00;;
72584;SDS011;60618;40.084;32.908;2023-05-10T09:05:30;12.88;;;8.20;;
72584;SDS011;60618;40.084;32.908;2023-05-10T09:07:57;11.45;;;7.10;;
72584;SDS011;60618;40.084;32.908;2023-05-10T09:10:24;11.33;;;7.50;;
72584;SDS011;60618;40.084;32.908;2023-05-10T09:12:52;11.35;;;7.47;;
72584;SDS011;60618;40.084;32.908;2023-05-10T09:15:20;13.40;;;7.32;;
72584;SDS011;60618;40.084;32.908;2023-05-10T09:17:47;12.32;;;7.70;;
72584;SDS011;60618;40.084;32.908;2023-05-10T09:20:15;11.90;;;6.97;;
72584;SDS011;60618;40.084;32.908;2023-05-10T09:22:43;14.27;;;7.53;;
72584;SDS011;60618;40.084;32.908;2023-05-10T09:25:11;15.07;;;7.75;;
72584;SDS011;60618;40.084;32.908;2023-05-10T09:27:44;12.63;;;7.63;;
72584;SDS011;60618;40.084;32.908;2023-05-10T09:30:16;13.15;;;7.80;;
72584;SDS011;60618;40.084;32.908;2023-05-10T09:32:49;12.63;;;7.97;;
72584;SDS011;60618;40.084;32.908;2023-05-10T09:35:17;16.60;;;9.80;;
72584;SDS011;60618;40.084;32.908;2023-05-10T09:37:47;12.32;;;6.90;;
72584;SDS011;60618;40.084;32.908;2023-05-10T09:40:16;12.88;;;8.07;;
72584;SDS011;60618;40.084;32.908;2023-05-10T09:42:54;11.43;;;7.20;;
72584;SDS011;60618;40.084;32.908;2023-05-10T09:45:23;10.52;;;6.63;;
72584;SDS011;60618;40.084;32.908;2023-05-10T09:47:51;12.13;;;7.00;;
72584;SDS011;60618;40.084;32.908;2023-05-10T09:50:19;10.07;;;6.90;;
72584;SDS011;60618;40.084;32.908;2023-05-10T09:58:07;11.05;;;6.35;;
72584;SDS011;60618;40.084;32.908;2023-05-10T10:00:38;7.80;;;5.20;;
72584;SDS011;60618;40.084;32.908;2023-05-10T10:03:11;7.68;;;5.18;;
72584;SDS011;60618;40.084;32.908;2023-05-10T10:05:40;11.35;;;6.78;;
72584;SDS011;60618;40.084;32.908;2023-05-10T10:08:08;12.63;;;8.20;;
72584;SDS011;60618;40.084;32.908;2023-05-10T10:10:36;14.23;;;8.75;;
72584;SDS011;60618;40.084;32.908;2023-05-10T10:13:04;12.50;;;7.97;;
72584;SDS011;60618;40.084;32.908;2023-05-10T10:15:30;15.00;;;9.10;;
72584;SDS011;60618;40.084;32.908;2023-05-10T10:17:59;11.82;;;7.60;;
72584;SDS011;60618;40.084;32.908;2023-05-10T10:20:27;11.35;;;7.53;;
72584;SDS011;60618;40.084;32.908;2023-05-10T10:22:54;11.02;;;7.78;;
72584;SDS011;60618;40.084;32.908;2023-05-10T10:25:21;13.50;;;8.40;;
72584;SDS011;60618;40.084;32.908;2023-05-10T10:36:02;11.98;;;7.68;;
72584;SDS011;60618;40.084;32.908;2023-05-10T10:39:07;11.93;;;7.77;;
72584;SDS011;60618;40.084;32.908;2023-05-10T10:41:31;13.32;;;8.80;;
72584;SDS011;60618;40.084;32.908;2023-05-10T10:49:42;12.77;;;7.72;;
72584;SDS011;60618;40.084;32.908;2023-05-10T10:52:23;12.10;;;7.47;;
72584;SDS011;60618;40.084;32.908;2023-05-10T10:54:58;15.27;;;8.55;;
72584;SDS011;60618;40.084;32.908;2023-05-10T10:57:26;14.48;;;9.00;;
72584;SDS011;60618;40.084;32.908;2023-05-10T11:00:36;12.27;;;7.43;;
72584;SDS011;60618;40.084;32.908;2023-05-10T11:02:49;13.38;;;8.10;;
72584;SDS011;60618;40.084;32.908;2023-05-10T11:05:25;14.97;;;8.53;;
72584;SDS011;60618;40.084;32.908;2023-05-10T11:07:55;14.05;;;7.90;;
72584;SDS011;60618;40.084;32.908;2023-05-10T11:10:24;12.80;;;8.38;;
72584;SDS011;60618;40.084;32.908;2023-05-10T11:13:07;13.40;;;8.10;;
72584;SDS011;60618;40.084;32.908;2023-05-10T11:15:39;13.55;;;7.60;;
72584;SDS011;60618;40.084;32.908;2023-05-10T11:21:00;14.40;;;8.35;;
72584;SDS011;60618;40.084;32.908;2023-05-10T11:23:31;15.18;;;9.32;;
72584;SDS011;60618;40.084;32.908;2023-05-10T11:25:59;12.32;;;8.27;;
72584;SDS011;60618;40.084;32.908;2023-05-10T11:28:27;13.05;;;8.23;;
72584;SDS011;60618;40.084;32.908;2023-05-10T11:30:53;14.63;;;8.40;;
72584;SDS011;60618;40.084;32.908;2023-05-10T11:33:21;11.52;;;7.35;;
72584;SDS011;60618;40.084;32.908;2023-05-10T11:35:48;15.35;;;8.93;;
72584;SDS011;60618;40.084;32.908;2023-05-10T11:38:14;14.30;;;8.10;;
72584;SDS011;60618;40.084;32.908;2023-05-10T11:40:42;13.40;;;8.77;;
72584;SDS011;60618;40.084;32.908;2023-05-10T11:43:09;12.17;;;6.90;;
72584;SDS011;60618;40.084;32.908;2023-05-10T11:45:36;12.98;;;8.57;;
72584;SDS011;60618;40.084;32.908;2023-05-10T11:48:03;14.65;;;8.43;;
72584;SDS011;60618;40.084;32.908;2023-05-10T11:50:31;14.82;;;8.07;;
72584;SDS011;60618;40.084;32.908;2023-05-10T11:52:57;12.38;;;7.93;;
72584;SDS011;60618;40.084;32.908;2023-05-10T11:55:24;16.33;;;9.23;;
72584;SDS011;60618;40.084;32.908;2023-05-10T11:57:52;14.88;;;9.40;;
72584;SDS011;60618;40.084;32.908;2023-05-10T12:00:26;13.00;;;8.32;;
72584;SDS011;60618;40.084;32.908;2023-05-10T12:02:53;14.10;;;7.97;;
72584;SDS011;60618;40.084;32.908;2023-05-10T12:05:20;13.10;;;7.82;;
72584;SDS011;60618;40.084;32.908;2023-05-10T12:07:48;12.73;;;8.17;;
72584;SDS011;60618;40.084;32.908;2023-05-10T12:10:15;12.43;;;7.55;;
72584;SDS011;60618;40.084;32.908;2023-05-10T12:12:43;13.02;;;8.20;;
72584;SDS011;60618;40.084;32.908;2023-05-10T12:15:20;13.02;;;7.80;;
72584;SDS011;60618;40.084;32.908;2023-05-10T12:17:49;12.80;;;7.80;;
72584;SDS011;60618;40.084;32.908;2023-05-10T12:20:17;12.33;;;8.07;;
72584;SDS011;60618;40.084;32.908;2023-05-10T12:22:47;25.95;;;8.98;;
72584;SDS011;60618;40.084;32.908;2023-05-10T12:25:18;18.23;;;8.52;;
72584;SDS011;60618;40.084;32.908;2023-05-10T12:27:50;13.93;;;8.82;;
72584;SDS011;60618;40.084;32.908;2023-05-10T12:30:28;12.82;;;8.57;;
72584;SDS011;60618;40.084;32.908;2023-05-10T12:33:09;16.40;;;10.13;;
72584;SDS011;60618;40.084;32.908;2023-05-10T12:35:47;15.25;;;8.63;;
72584;SDS011;60618;40.084;32.908;2023-05-10T12:38:25;15.60;;;8.90;;
72584;SDS011;60618;40.084;32.908;2023-05-10T12:40:51;16.27;;;9.48;;
72584;SDS011;60618;40.084;32.908;2023-05-10T12:43:18;15.57;;;9.82;;
72584;SDS011;60618;40.084;32.908;2023-05-10T12:45:46;16.33;;;10.43;;
72584;SDS011;60618;40.084;32.908;2023-05-10T12:48:14;20.23;;;9.52;;
72584;SDS011;60618;40.084;32.908;2023-05-10T12:50:41;13.38;;;8.32;;
72584;SDS011;60618;40.084;32.908;2023-05-10T12:53:08;22.60;;;8.48;;
72584;SDS011;60618;40.084;32.908;2023-05-10T12:55:35;15.80;;;8.70;;
72584;SDS011;60618;40.084;32.908;2023-05-10T12:58:02;15.67;;;8.90;;
72584;SDS011;60618;40.084;32.908;2023-05-10T13:00:28;12.48;;;7.75;;
72584;SDS011;60618;40.084;32.908;2023-05-10T13:02:55;13.23;;;8.50;;
72584;SDS011;60618;40.084;32.908;2023-05-10T13:05:22;17.90;;;9.05;;
72584;SDS011;60618;40.084;32.908;2023-05-10T13:07:49;13.88;;;8.60;;
72584;SDS011;60618;40.084;32.908;2023-05-10T13:10:18;13.10;;;8.97;;
72584;SDS011;60618;40.084;32.908;2023-05-10T13:12:45;15.02;;;8.60;;
72584;SDS011;60618;40.084;32.908;2023-05-10T13:15:12;15.02;;;8.98;;
72584;SDS011;60618;40.084;32.908;2023-05-10T13:17:38;13.45;;;8.73;;
72584;SDS011;60618;40.084;32.908;2023-05-10T13:20:06;16.10;;;9.02;;
72584;SDS011;60618;40.084;32.908;2023-05-10T13:22:33;15.27;;;8.53;;
72584;SDS011;60618;40.084;32.908;2023-05-10T13:25:06;14.68;;;9.10;;
72584;SDS011;60618;40.084;32.908;2023-05-10T13:27:33;16.05;;;8.88;;
72584;SDS011;60618;40.084;32.908;2023-05-10T13:30:00;13.73;;;8.05;;
72584;SDS011;60618;40.084;32.908;2023-05-10T13:32:27;15.43;;;8.20;;
72584;SDS011;60618;40.084;32.908;2023-05-10T13:34:54;13.33;;;7.47;;
72584;SDS011;60618;40.084;32.908;2023-05-10T13:37:22;18.65;;;8.48;;
72584;SDS011;60618;40.084;32.908;2023-05-10T13:39:48;14.05;;;8.05;;
72584;SDS011;60618;40.084;32.908;2023-05-10T13:42:15;15.73;;;8.40;;
72584;SDS011;60618;40.084;32.908;2023-05-10T13:44:42;12.00;;;7.20;;
72584;SDS011;60618;40.084;32.908;2023-05-10T13:47:09;12.20;;;7.30;;
72584;SDS011;60618;40.084;32.908;2023-05-10T13:49:36;11.88;;;7.20;;
72584;SDS011;60618;40.084;32.908;2023-05-10T13:52:03;11.63;;;7.53;;
72584;SDS011;60618;40.084;32.908;2023-05-10T13:54:30;9.88;;;6.68;;
72584;SDS011;60618;40.084;32.908;2023-05-10T13:56:57;14.55;;;7.43;;
72584;SDS011;60618;40.084;32.908;2023-05-10T13:59:26;12.03;;;6.90;;
72584;SDS011;60618;40.084;32.908;2023-05-10T14:01:53;13.88;;;7.50;;
72584;SDS011;60618;40.084;32.908;2023-05-10T14:04:20;30.98;;;8.15;;
72584;SDS011;60618;40.084;32.908;2023-05-10T14:06:47;14.38;;;7.88;;
72584;SDS011;60618;40.084;32.908;2023-05-10T14:09:14;13.23;;;7.25;;
72584;SDS011;60618;40.084;32.908;2023-05-10T14:11:41;17.67;;;7.47;;
72584;SDS011;60618;40.084;32.908;2023-05-10T14:14:08;12.38;;;6.60;;
72584;SDS011;60618;40.084;32.908;2023-05-10T14:16:36;12.95;;;6.90;;
72584;SDS011;60618;40.084;32.908;2023-05-10T14:19:03;12.32;;;6.88;;
72584;SDS011;60618;40.084;32.908;2023-05-10T14:21:30;12.30;;;7.70;;
72584;SDS011;60618;40.084;32.908;2023-05-10T14:23:57;11.07;;;7.03;;
72584;SDS011;60618;40.084;32.908;2023-05-10T14:26:24;11.90;;;6.97;;
72584;SDS011;60618;40.084;32.908;2023-05-10T14:28:51;12.82;;;7.40;;
72584;SDS011;60618;40.084;32.908;2023-05-10T14:31:18;11.73;;;7.10;;
72584;SDS011;60618;40.084;32.908;2023-05-10T14:33:45;14.27;;;7.03;;
72584;SDS011;60618;40.084;32.908;2023-05-10T14:36:12;10.30;;;6.67;;
72584;SDS011;60618;40.084;32.908;2023-05-10T14:38:40;9.88;;;6.15;;
72584;SDS011;60618;40.084;32.908;2023-05-10T14:41:07;11.85;;;5.75;;
72584;SDS011;60618;40.084;32.908;2023-05-10T14:43:37;10.13;;;5.97;;
72584;SDS011;60618;40.084;32.908;2023-05-10T14:46:03;14.27;;;5.65;;
72584;SDS011;60618;40.084;32.908;2023-05-10T14:48:30;9.83;;;5.60;;
72584;SDS011;60618;40.084;32.908;2023-05-10T14:50:57;10.73;;;6.25;;
72584;SDS011;60618;40.084;32.908;2023-05-10T14:53:24;13.18;;;6.18;;
72584;SDS011;60618;40.084;32.908;2023-05-10T14:55:51;11.48;;;5.68;;
72584;SDS011;60618;40.084;32.908;2023-05-10T14:58:18;10.48;;;5.90;;
72584;SDS011;60618;40.084;32.908;2023-05-10T15:00:45;9.67;;;6.33;;
72584;SDS011;60618;40.084;32.908;2023-05-10T15:03:13;10.70;;;6.63;;
72584;SDS011;60618;40.084;32.908;2023-05-10T15:05:41;9.77;;;6.13;;